Key Largo, FL

5:46 AM EDT on June 03, 2015 (GMT -0400)
Mile marker 95 | | Change Station
CLOSE
Current Station
Personal Weather Station
Location: Key Largo, FL
Elevation: 23 ft
Nearby Weather Stations

Elev 23 ft 25.05 °N, 80.48 °W | Updated 5 seconds ago

Mostly Cloudy
Mostly Cloudy
79.0 °F
Feels Like 82 °F
N
6.0
Wind Variable Wind from ENE
Gusts 6.0 mph

Today
High -- | Low -- °F
--% Chance of Precip.
Yesterday
High -- | Low -- °F
Precip. -- in
6:31 AM 8:08 PM
Full, 99% visible
Pressure 29.92 in
Visibility 10.0 miles
Clouds Few 4800 ft
Scattered Clouds 6000 ft
Heat Index 82 °F
Dew Point 72 °F
Humidity 78%
Rainfall 0.00 in
Snow Depth Not available.
UV 0.0 out of 12
Pollen 1.10 out of 12
Air Quality Not available.
Flu Activity Sporadic
METAR KHST 030858Z AUTO 03004KT 10SM FEW048 SCT060 24/20 A2991 RMK AO2 SLP132 60000 T02380196 57012

More Conditions Fewer Conditions

Pressure 29.92 in
Visibility 10.0 miles
Clouds Few 4800 ft
Scattered Clouds 6000 ft
Heat Index 82 °F
Dew Point 72 °F
Humidity 78%
Rainfall 0.00 in
Snow Depth Not available.
UV 0.0 out of 12
Pollen 1.10 out of 12
Air Quality Not available.
Flu Activity Sporadic
METAR KHST 030858Z AUTO 03004KT 10SM FEW048 SCT060 24/20 A2991 RMK AO2 SLP132 60000 T02380196 57012

More Conditions Fewer Conditions

Nowcast | as of 4:44 am EDT on June 3, 2015

Widely scattered showers with embedded heavy downpours will meander across the Keys area through 600 am. The strongest of these showers will produce heavy downpours...limiting visibility to near zero...and producing wind gusts near 25 knots over the waters surrounding the island chain. Only a few of these showers will cross the island chain with up to several hundredths of an inch of rainfall...while the most robust events remain off shore.

×

10-Day Weather Forecast

×

Almanac

Astronomy

Jun. 03, 2015 Rise Set
Actual Time
Civil Twilight
Nautical Twilight
Astronomical Twilight
Moon
Length of Visible Light
Length of Day
Tomorrow will be .
, % of the Moon is Illuminated

Today's Extremes

State Highs State Lows

Community

WunderPhotos

Upload Photos

1,826,197 photos uploaded!

WunderBlogs® & News

Nearby

Air Quality

  Air Quality AQ Index Pollutant
Not available.

Snow Depth

Station Depth Elevation

Earthquake Activity

City Distance Mag. Time & Date
Minimum magnitude displayed is 2.5.

Coastal Water Temperatures

Place Temperature

Stations

Nearby Weather Stations

Station Location Temp. Windchill Dew Point Humidity Wind Precip. Elev Updated Type